Gustave, South Dakota
Current Conditions -  °F | °C
As of 3:51 AM on Saturday 01 Nov 2014 (Local Time) from KBHK Reporting Station
Clear Clear  
Wind Chill: 23°   Ceiling: Unl
Heat Index: 31°   Visibility: 10mi
Dew Point: 26°   Wind: 8mph
Humidity: 82%   Direction: 120°ESE
Pressure: 29.78"   Gusts: NA
Location:  45.6592°N, 103.944°W
Report Text: KBHK 010951Z AUTO 12007KT 10SM CLR M01/M03 A2978 RMK AO2 SLP099 T10061033
Loading
Personal Weather Stations






























Interactive Weather Map
Tropical Storm Tracking
New forecast layout! Learn more

10-Day Weather Forecast

Advertisements
Track Severe Weather on mobile